Time;durP1;ratioP1;P1;durP2;ratioP2;P2;SDS_P1;SDS_P2;PMS_P1;PMS_P2;Temp;Humidity;BMP_temperature;BMP_pressure;BME280_temperature;BME280_humidity;BME280_pressure;Samples;Min_cycle;Max_cycle;Signal;HPM_P1;HPM_P2
2020/12/28 00:00:33;;;;;;;0.63;0.30;;;1.20;99.90;;;;;;5078152;28;20032;-67
2020/12/28 00:02:59;;;;;;;0.45;0.43;;;1.20;99.90;;;;;;5073552;28;20044;-67
2020/12/28 00:05:25;;;;;;;0.40;0.40;;;1.20;99.90;;;;;;5075877;28;20039;-66
2020/12/28 00:07:52;;;;;;;0.50;0.50;;;1.20;99.90;;;;;;5076490;28;20032;-67
2020/12/28 00:10:19;;;;;;;0.45;0.43;;;1.20;99.90;;;;;;5075289;28;20043;-66
2020/12/28 00:12:48;;;;;;;1.20;0.65;;;1.20;99.90;;;;;;5075648;28;20074;-66
2020/12/28 00:15:19;;;;;;;0.38;0.38;;;1.20;99.90;;;;;;5058979;28;20051;-66
2020/12/28 00:17:52;;;;;;;0.65;0.30;;;1.20;99.90;;;;;;5055808;28;20037;-66
2020/12/28 00:20:19;;;;;;;0.60;0.47;;;1.20;99.90;;;;;;5053023;28;20684;-66
2020/12/28 00:22:45;;;;;;;0.40;0.30;;;1.20;99.90;;;;;;5051969;28;20649;-66
2020/12/28 00:25:12;;;;;;;1.35;0.50;;;1.20;99.90;;;;;;5068259;28;20033;-66
2020/12/28 00:27:37;;;;;;;0.60;0.40;;;1.30;99.90;;;;;;5049147;28;20341;-66
2020/12/28 00:30:07;;;;;;;0.35;0.30;;;1.30;99.90;;;;;;5071086;28;20036;-66
2020/12/28 00:32:34;;;;;;;0.57;0.30;;;1.30;99.90;;;;;;5053690;28;20059;-66
2020/12/28 00:35:00;;;;;;;0.52;0.30;;;1.30;99.90;;;;;;5048867;28;20041;-66
2020/12/28 00:37:25;;;;;;;0.30;0.30;;;1.30;99.90;;;;;;5063360;28;20040;-66
2020/12/28 00:39:51;;;;;;;0.50;0.50;;;1.30;99.90;;;;;;5062359;28;20177;-66
2020/12/28 00:42:16;;;;;;;0.20;0.20;;;1.30;99.90;;;;;;5065087;28;20037;-66
2020/12/28 00:44:42;;;;;;;0.50;0.30;;;1.30;99.90;;;;;;5078905;28;20036;-67
2020/12/28 00:47:09;;;;;;;0.82;0.50;;;1.30;99.90;;;;;;5054442;28;21141;-66
2020/12/28 00:49:34;;;;;;;0.20;0.20;;;1.30;99.90;;;;;;5055422;28;20078;-66
2020/12/28 00:52:00;;;;;;;0.57;0.30;;;1.30;99.90;;;;;;5063933;28;20040;-66
2020/12/28 00:54:25;;;;;;;0.52;0.40;;;1.30;99.90;;;;;;5057401;28;20040;-66
2020/12/28 00:56:51;;;;;;;0.32;0.30;;;1.30;99.90;;;;;;5057356;28;20040;-66
2020/12/28 00:59:17;;;;;;;0.32;0.30;;;1.40;99.90;;;;;;5053094;28;20040;-66
2020/12/28 01:01:43;;;;;;;0.43;0.30;;;1.40;99.90;;;;;;5045484;28;20056;-66
2020/12/28 01:04:08;;;;;;;0.38;0.30;;;1.40;99.90;;;;;;5061977;28;20089;-66
2020/12/28 01:06:34;;;;;;;0.30;0.30;;;1.40;99.90;;;;;;5058186;28;20037;-66
2020/12/28 01:08:59;;;;;;;0.40;0.30;;;1.40;99.90;;;;;;5052998;28;20071;-66
2020/12/28 01:11:25;;;;;;;0.45;0.40;;;1.40;99.90;;;;;;5054902;28;20032;-66
2020/12/28 01:13:51;;;;;;;0.40;0.35;;;1.40;99.90;;;;;;5055911;28;20055;-66
2020/12/28 01:16:16;;;;;;;0.57;0.40;;;1.40;99.90;;;;;;5056147;28;20825;-66
2020/12/28 01:18:43;;;;;;;0.40;0.30;;;1.50;99.90;;;;;;5056353;28;20040;-67
2020/12/28 01:21:09;;;;;;;0.50;0.40;;;1.50;99.90;;;;;;5057367;28;20048;-67
2020/12/28 01:23:34;;;;;;;0.20;0.20;;;1.50;99.90;;;;;;5056635;28;20037;-67
2020/12/28 01:26:00;;;;;;;0.25;0.20;;;1.40;99.90;;;;;;5049270;28;20056;-66
2020/12/28 01:28:25;;;;;;;0.43;0.30;;;1.50;99.90;;;;;;5055631;28;20090;-66
2020/12/28 01:30:51;;;;;;;0.20;0.20;;;1.40;99.90;;;;;;5055859;28;20036;-66
2020/12/28 01:33:16;;;;;;;0.30;0.30;;;1.40;99.90;;;;;;5059159;28;20572;-66
2020/12/28 01:35:42;;;;;;;0.22;0.20;;;1.40;99.90;;;;;;5063756;28;20051;-67
2020/12/28 01:38:07;;;;;;;0.45;0.43;;;1.40;99.90;;;;;;5061920;28;21055;-67
2020/12/28 01:40:33;;;;;;;0.40;0.30;;;1.40;99.90;;;;;;5057461;28;20058;-66
2020/12/28 01:42:59;;;;;;;0.20;0.20;;;1.40;99.90;;;;;;5058108;28;20037;-66
2020/12/28 01:45:25;;;;;;;0.68;0.30;;;1.40;99.90;;;;;;5055936;28;20037;-66
2020/12/28 01:47:51;;;;;;;0.57;0.30;;;1.40;99.90;;;;;;5054923;28;20410;-66
2020/12/28 01:50:17;;;;;;;0.30;0.20;;;1.40;99.90;;;;;;5053419;28;20309;-66
2020/12/28 01:52:43;;;;;;;0.75;0.30;;;1.40;99.90;;;;;;5047228;28;20040;-66
2020/12/28 01:55:09;;;;;;;1.23;0.20;;;1.50;99.90;;;;;;5047139;28;20037;-66
2020/12/28 01:57:35;;;;;;;0.38;0.30;;;1.40;99.90;;;;;;5071592;28;20182;-66
2020/12/28 02:00:03;;;;;;;0.22;0.20;;;1.50;99.90;;;;;;5057065;28;20120;-67
2020/12/28 02:02:30;;;;;;;0.20;0.20;;;1.50;99.90;;;;;;5055714;28;20041;-67
2020/12/28 02:04:56;;;;;;;0.20;0.20;;;1.50;99.90;;;;;;5065044;28;20056;-67
2020/12/28 02:07:23;;;;;;;0.95;0.85;;;1.60;99.90;;;;;;5054523;28;20049;-67
2020/12/28 02:09:49;;;;;;;0.28;0.28;;;1.60;99.90;;;;;;5058295;28;20032;-67
2020/12/28 02:12:15;;;;;;;0.20;0.20;;;1.60;99.90;;;;;;5074414;28;20413;-66
2020/12/28 02:14:40;;;;;;;0.10;0.10;;;1.60;99.90;;;;;;5053862;28;20481;-67
2020/12/28 02:17:06;;;;;;;0.20;0.20;;;1.60;99.90;;;;;;5067018;28;20041;-67
2020/12/28 02:19:32;;;;;;;0.20;0.20;;;1.60;99.90;;;;;;5047106;28;21149;-66
2020/12/28 02:21:58;;;;;;;0.45;0.28;;;1.60;99.90;;;;;;5062205;28;20032;-67
2020/12/28 02:24:24;;;;;;;0.22;0.22;;;1.60;99.90;;;;;;5067305;28;20053;-67
2020/12/28 02:26:49;;;;;;;0.30;0.30;;;1.60;99.90;;;;;;5073390;28;20092;-67
2020/12/28 02:29:15;;;;;;;0.20;0.20;;;1.60;99.90;;;;;;5058743;28;20082;-66
2020/12/28 02:31:40;;;;;;;0.20;0.20;;;1.60;99.90;;;;;;5063652;28;20644;-67
2020/12/28 02:34:06;;;;;;;0.45;0.30;;;1.60;99.90;;;;;;5055952;28;20048;-67
2020/12/28 02:36:31;;;;;;;0.93;0.35;;;1.60;99.90;;;;;;5056201;28;20033;-67
2020/12/28 02:38:57;;;;;;;0.20;0.20;;;1.60;99.90;;;;;;5066365;28;20036;-67
2020/12/28 02:41:24;;;;;;;0.38;0.30;;;1.60;99.90;;;;;;5071700;28;20044;-67
2020/12/28 02:43:51;;;;;;;0.57;0.35;;;1.60;99.90;;;;;;5066685;28;20040;-67
2020/12/28 02:46:17;;;;;;;0.15;0.15;;;1.60;99.90;;;;;;5050596;28;20036;-67
2020/12/28 02:48:42;;;;;;;0.22;0.22;;;1.70;99.90;;;;;;5052203;28;20037;-67
2020/12/28 02:51:10;;;;;;;0.40;0.20;;;1.70;99.90;;;;;;5055083;28;20176;-67
2020/12/28 02:53:36;;;;;;;0.30;0.20;;;1.70;99.90;;;;;;5068945;28;20587;-66
2020/12/28 02:56:01;;;;;;;0.20;0.20;;;1.70;99.90;;;;;;5056811;28;20155;-67
2020/12/28 02:58:27;;;;;;;0.20;0.20;;;1.80;99.90;;;;;;5056223;28;20036;-67
2020/12/28 03:00:52;;;;;;;0.60;0.30;;;1.80;99.90;;;;;;5061903;28;20040;-67
2020/12/28 03:03:18;;;;;;;1.27;0.50;;;1.70;99.90;;;;;;5056100;28;20451;-67
2020/12/28 03:05:43;;;;;;;0.20;0.20;;;1.80;99.90;;;;;;5055897;28;20545;-67
2020/12/28 03:08:09;;;;;;;0.32;0.28;;;1.70;99.90;;;;;;5049975;28;20044;-67
2020/12/28 03:10:34;;;;;;;0.30;0.30;;;1.70;99.90;;;;;;5055288;28;20039;-67
2020/12/28 03:13:00;;;;;;;0.25;0.25;;;1.70;99.90;;;;;;5064153;28;20051;-67
2020/12/28 03:15:25;;;;;;;0.20;0.20;;;1.70;99.90;;;;;;5052418;28;20044;-67
2020/12/28 03:17:51;;;;;;;0.50;0.40;;;1.70;99.90;;;;;;5052497;28;20029;-67
2020/12/28 03:20:17;;;;;;;0.20;0.20;;;1.70;99.90;;;;;;5055124;28;20620;-67
2020/12/28 03:22:42;;;;;;;0.20;0.20;;;1.80;99.90;;;;;;5055894;28;20052;-67
2020/12/28 03:25:08;;;;;;;0.30;0.30;;;1.80;99.90;;;;;;5055546;28;20170;-67
2020/12/28 03:27:33;;;;;;;0.20;0.20;;;1.80;99.90;;;;;;5053463;28;20036;-67
2020/12/28 03:29:59;;;;;;;0.40;0.32;;;1.80;99.90;;;;;;5052088;28;20039;-67
2020/12/28 03:32:24;;;;;;;0.47;0.40;;;1.90;99.90;;;;;;5052090;28;20032;-67
2020/12/28 03:34:50;;;;;;;0.47;0.40;;;1.90;99.90;;;;;;5055079;28;20028;-67
2020/12/28 03:37:15;;;;;;;0.20;0.20;;;1.90;99.90;;;;;;5057555;28;20132;-67
2020/12/28 03:39:41;;;;;;;1.05;0.30;;;1.90;99.90;;;;;;5053717;28;20047;-67
2020/12/28 03:42:07;;;;;;;0.30;0.30;;;1.90;99.90;;;;;;5063816;28;20128;-67
2020/12/28 03:44:32;;;;;;;0.20;0.20;;;1.90;99.90;;;;;;5055641;28;20041;-67
2020/12/28 03:46:58;;;;;;;0.20;0.20;;;1.90;99.90;;;;;;5070450;28;20049;-67
2020/12/28 03:49:24;;;;;;;0.32;0.22;;;1.90;99.90;;;;;;5055750;28;20041;-67
2020/12/28 03:51:49;;;;;;;0.50;0.30;;;1.90;99.90;;;;;;5074622;28;20037;-67
2020/12/28 03:54:15;;;;;;;0.20;0.20;;;1.90;99.90;;;;;;5055963;28;20082;-67
2020/12/28 03:56:40;;;;;;;0.30;0.30;;;2.00;99.90;;;;;;5056157;28;20047;-67
2020/12/28 03:59:06;;;;;;;0.32;0.30;;;2.00;99.90;;;;;;5051659;28;20090;-67
2020/12/28 04:01:33;;;;;;;0.20;0.20;;;2.00;99.90;;;;;;5052416;28;20044;-68
2020/12/28 04:03:58;;;;;;;0.30;0.25;;;2.00;99.90;;;;;;5056345;28;20041;-67
2020/12/28 04:06:24;;;;;;;0.50;0.30;;;2.00;99.90;;;;;;5071752;28;20572;-68
2020/12/28 04:08:49;;;;;;;0.20;0.20;;;2.00;99.90;;;;;;5054442;28;20040;-68
2020/12/28 04:11:15;;;;;;;0.20;0.20;;;1.90;99.90;;;;;;5065861;28;20141;-68
2020/12/28 04:13:40;;;;;;;0.30;0.30;;;1.90;99.90;;;;;;5061635;28;20129;-67
2020/12/28 04:16:06;;;;;;;0.20;0.20;;;1.90;99.90;;;;;;5053259;28;20547;-68
2020/12/28 04:18:32;;;;;;;0.20;0.20;;;1.90;99.90;;;;;;5061575;28;20040;-68
2020/12/28 04:20:57;;;;;;;0.20;0.20;;;2.00;99.90;;;;;;5065865;28;20040;-68
2020/12/28 04:23:23;;;;;;;0.20;0.20;;;2.00;99.90;;;;;;5064242;28;20665;-68
2020/12/28 04:25:48;;;;;;;1.15;0.30;;;2.00;99.90;;;;;;5055750;28;20029;-68
2020/12/28 04:28:14;;;;;;;0.22;0.20;;;2.00;99.90;;;;;;5050935;28;20504;-68
2020/12/28 04:30:39;;;;;;;0.80;0.30;;;2.00;99.90;;;;;;5054511;28;20136;-68
2020/12/28 04:33:05;;;;;;;0.30;0.20;;;2.00;99.90;;;;;;5065475;28;20044;-68
2020/12/28 04:35:30;;;;;;;0.20;0.20;;;2.00;99.90;;;;;;5069291;28;20090;-68
2020/12/28 04:37:56;;;;;;;0.20;0.20;;;2.00;99.90;;;;;;5054019;28;20036;-68
2020/12/28 04:40:22;;;;;;;0.28;0.20;;;2.00;99.90;;;;;;5057663;28;20127;-68
2020/12/28 04:42:47;;;;;;;0.38;0.22;;;2.00;99.90;;;;;;5070197;28;20078;-68
2020/12/28 04:45:12;;;;;;;0.50;0.40;;;2.00;99.90;;;;;;5057766;28;20136;-68
2020/12/28 04:47:38;;;;;;;0.20;0.20;;;1.90;99.90;;;;;;5059604;28;20036;-68
2020/12/28 04:50:06;;;;;;;0.20;0.20;;;2.00;99.90;;;;;;5057743;28;20078;-68
2020/12/28 04:52:33;;;;;;;0.50;0.20;;;2.00;99.90;;;;;;5058337;28;20093;-68
2020/12/28 04:54:59;;;;;;;0.70;0.45;;;2.00;99.90;;;;;;5058152;28;20075;-68
2020/12/28 04:57:24;;;;;;;0.20;0.20;;;1.90;99.90;;;;;;5058658;28;20036;-68
2020/12/28 04:59:55;;;;;;;0.20;0.20;;;1.90;99.90;;;;;;5049645;28;20112;-68
2020/12/28 05:02:22;;;;;;;0.20;0.20;;;1.90;99.90;;;;;;5065106;28;20032;-68
2020/12/28 05:04:48;;;;;;;0.30;0.30;;;1.90;99.90;;;;;;5057488;28;20048;-68
2020/12/28 05:07:13;;;;;;;0.20;0.20;;;1.80;99.90;;;;;;5055908;28;20032;-68
2020/12/28 05:09:39;;;;;;;0.30;0.20;;;1.80;99.90;;;;;;5054390;28;20047;-68
2020/12/28 05:12:05;;;;;;;3.55;0.30;;;1.80;99.90;;;;;;5063205;28;20645;-68
2020/12/28 05:14:32;;;;;;;0.30;0.30;;;1.80;99.90;;;;;;5059444;28;20573;-68
2020/12/28 05:16:59;;;;;;;0.30;0.30;;;1.80;99.90;;;;;;5072465;28;20036;-68
2020/12/28 05:19:26;;;;;;;0.30;0.30;;;1.70;99.90;;;;;;5055550;28;20504;-68
2020/12/28 05:21:56;;;;;;;0.30;0.20;;;1.70;99.90;;;;;;5054261;28;20783;-68
2020/12/28 05:24:22;;;;;;;0.30;0.20;;;1.70;99.90;;;;;;5059241;28;20056;-68
2020/12/28 05:26:48;;;;;;;0.40;0.20;;;1.60;99.90;;;;;;5053720;28;20489;-68
2020/12/28 05:29:20;;;;;;;0.40;0.30;;;1.60;99.90;;;;;;5055541;28;20037;-68
2020/12/28 05:31:47;;;;;;;1.10;0.20;;;1.60;99.90;;;;;;5068864;28;20144;-68
2020/12/28 05:34:18;;;;;;;0.35;0.20;;;1.50;99.90;;;;;;5054351;28;20075;-68
2020/12/28 05:36:53;;;;;;;0.25;0.25;;;1.50;99.90;;;;;;5071753;28;20044;-68
2020/12/28 05:39:20;;;;;;;0.32;0.30;;;1.40;99.90;;;;;;5057409;28;20036;-68
2020/12/28 05:42:12;;;;;;;0.32;0.30;;;1.40;99.90;;;;;;5054960;28;20119;-68
2020/12/28 05:44:41;;;;;;;1.08;0.30;;;1.40;99.90;;;;;;5050334;28;20044;-68
2020/12/28 05:47:12;;;;;;;0.30;0.30;;;1.40;99.90;;;;;;5048915;28;20040;-68
2020/12/28 05:49:39;;;;;;;0.20;0.20;;;1.30;99.90;;;;;;5057006;28;20028;-67
2020/12/28 05:52:07;;;;;;;0.30;0.20;;;1.30;99.90;;;;;;5062124;28;20048;-68
2020/12/28 05:54:34;;;;;;;0.20;0.20;;;1.40;99.90;;;;;;5055225;28;20194;-67
2020/12/28 05:57:00;;;;;;;0.22;0.20;;;1.40;99.90;;;;;;5055398;28;20033;-67
2020/12/28 05:59:26;;;;;;;0.20;0.20;;;1.40;99.90;;;;;;5073587;28;20588;-68
2020/12/28 06:01:52;;;;;;;0.20;0.20;;;1.40;99.90;;;;;;5056275;28;20055;-67
2020/12/28 06:04:18;;;;;;;0.40;0.30;;;1.50;99.90;;;;;;5063876;28;20048;-67
2020/12/28 06:06:45;;;;;;;0.30;0.30;;;1.50;99.90;;;;;;5053907;28;20044;-67
2020/12/28 06:09:15;;;;;;;0.20;0.20;;;1.50;99.90;;;;;;5057270;28;20040;-67
2020/12/28 06:11:40;;;;;;;2.40;0.30;;;1.40;99.90;;;;;;5064540;28;20040;-68
2020/12/28 06:14:17;;;;;;;0.68;0.30;;;1.30;99.90;;;;;;5072185;28;20434;-67
2020/12/28 06:16:43;;;;;;;;;;;1.30;99.90;;;;;;5053071;28;20033;-67
2020/12/28 06:19:29;;;;;;;0.30;0.30;;;1.30;99.90;;;;;;5053379;28;20307;-67
2020/12/28 06:21:54;;;;;;;0.50;0.40;;;1.20;99.90;;;;;;5051037;28;20040;-67
2020/12/28 06:24:30;;;;;;;0.32;0.20;;;1.10;99.90;;;;;;5056046;28;20032;-67
2020/12/28 06:27:09;;;;;;;0.30;0.30;;;1.20;99.90;;;;;;5060826;28;20790;-67
2020/12/28 06:29:36;;;;;;;0.30;0.30;;;1.10;99.90;;;;;;5055643;28;20562;-67
2020/12/28 06:32:15;;;;;;;0.55;0.30;;;1.20;99.90;;;;;;5071767;28;20484;-67
2020/12/28 06:34:44;;;;;;;0.20;0.20;;;1.20;99.90;;;;;;5054726;28;20679;-67
2020/12/28 06:37:10;;;;;;;0.40;0.30;;;1.20;99.90;;;;;;5058359;28;20040;-67
2020/12/28 06:39:35;;;;;;;0.43;0.30;;;1.20;99.90;;;;;;5055853;28;20040;-67
2020/12/28 06:42:14;;;;;;;0.30;0.30;;;1.10;99.90;;;;;;5060648;28;20044;-67
2020/12/28 06:44:41;;;;;;;1.08;0.38;;;1.10;99.90;;;;;;5054229;28;20701;-67
2020/12/28 06:47:18;;;;;;;0.85;0.50;;;1.10;99.90;;;;;;5055560;28;20539;-67
2020/12/28 06:49:44;;;;;;;1.13;0.68;;;1.00;99.90;;;;;;5055797;28;20134;-67
2020/12/28 06:52:10;;;;;;;1.50;1.00;;;1.10;99.90;;;;;;5054634;28;20914;-67
2020/12/28 06:54:35;;;;;;;1.33;0.90;;;1.00;99.90;;;;;;5064037;28;20768;-67
2020/12/28 06:57:03;;;;;;;0.77;0.50;;;1.00;99.90;;;;;;5070602;28;20044;-67
2020/12/28 06:59:28;;;;;;;0.50;0.40;;;1.10;99.90;;;;;;5050714;28;20078;-66
2020/12/28 07:01:54;;;;;;;1.23;0.40;;;1.10;99.90;;;;;;5050288;28;20044;-68
2020/12/28 07:04:21;;;;;;;1.02;0.50;;;1.10;99.90;;;;;;5056447;28;20045;-68
2020/12/28 07:06:46;;;;;;;0.55;0.40;;;1.10;99.90;;;;;;5054777;28;20048;-72
2020/12/28 07:09:12;;;;;;;0.98;0.60;;;1.10;99.90;;;;;;5057221;28;20551;-66
2020/12/28 07:11:38;;;;;;;0.50;0.40;;;1.10;99.90;;;;;;5065566;28;20039;-69
2020/12/28 07:14:05;;;;;;;4.05;0.40;;;1.10;99.90;;;;;;5053510;28;20068;-66
2020/12/28 07:16:32;;;;;;;2.38;0.30;;;1.10;99.90;;;;;;5047201;28;20040;-66
2020/12/28 07:19:02;;;;;;;0.68;0.40;;;1.10;99.90;;;;;;5055378;28;20058;-67
2020/12/28 07:21:27;;;;;;;2.67;0.68;;;1.00;99.90;;;;;;5053031;28;20756;-68
2020/12/28 07:23:53;;;;;;;0.40;0.25;;;1.00;99.90;;;;;;5057830;28;20705;-68
2020/12/28 07:26:19;;;;;;;0.50;0.40;;;1.00;99.90;;;;;;5067730;28;20036;-66
2020/12/28 07:28:47;;;;;;;0.40;0.30;;;1.10;99.90;;;;;;5059531;28;20125;-67
2020/12/28 07:31:13;;;;;;;0.20;0.20;;;1.10;99.90;;;;;;5059861;28;20119;-66
2020/12/28 07:33:46;;;;;;;1.13;0.30;;;1.10;99.90;;;;;;5053171;28;20116;-66
2020/12/28 07:36:14;;;;;;;0.45;0.30;;;1.20;99.90;;;;;;5070762;28;20700;-66
2020/12/28 07:38:43;;;;;;;1.00;0.32;;;1.20;99.90;;;;;;5070377;28;20066;-66
2020/12/28 07:41:17;;;;;;;0.60;0.30;;;1.30;99.90;;;;;;5061689;28;20037;-66
2020/12/28 07:43:52;;;;;;;0.32;0.30;;;1.20;99.90;;;;;;5064197;28;20060;-67
2020/12/28 07:46:33;;;;;;;2.93;0.50;;;1.30;99.90;;;;;;5054067;28;20055;-67
2020/12/28 07:49:17;;;;;;;0.30;0.30;;;1.30;99.90;;;;;;5056142;28;20069;-67
2020/12/28 07:51:48;;;;;;;2.35;0.50;;;1.30;99.90;;;;;;5058135;28;20040;-67
2020/12/28 07:54:21;;;;;;;1.50;0.40;;;1.40;99.90;;;;;;5068612;28;20047;-67
2020/12/28 07:56:58;;;;;;;0.25;0.25;;;1.40;99.90;;;;;;5073348;28;20044;-67
2020/12/28 07:59:40;;;;;;;0.57;0.30;;;1.30;99.90;;;;;;5067474;28;20068;-67
2020/12/28 08:02:39;;;;;;;0.50;0.40;;;1.30;99.90;;;;;;5055193;28;20032;-67
2020/12/28 08:05:05;;;;;;;0.50;0.30;;;1.20;99.90;;;;;;5046669;28;20054;-67
2020/12/28 08:07:35;;;;;;;1.45;0.30;;;1.20;99.90;;;;;;5059023;28;20040;-67
2020/12/28 08:10:01;;;;;;;0.30;0.30;;;1.20;99.90;;;;;;5060965;28;20067;-67
2020/12/28 08:12:30;;;;;;;0.68;0.35;;;1.30;99.90;;;;;;5066073;28;20111;-67
2020/12/28 08:14:56;;;;;;;0.30;0.30;;;1.40;99.90;;;;;;5059062;28;20076;-67
2020/12/28 08:17:26;;;;;;;0.63;0.40;;;1.50;99.90;;;;;;5056385;28;20052;-67
2020/12/28 08:20:11;;;;;;;0.30;0.30;;;1.50;99.90;;;;;;5058503;28;20040;-67
2020/12/28 08:22:37;;;;;;;0.52;0.45;;;1.60;99.90;;;;;;5055102;28;20428;-67
2020/12/28 08:25:09;;;;;;;0.70;0.40;;;1.60;99.90;;;;;;5061008;28;20089;-67
2020/12/28 08:27:35;;;;;;;0.82;0.40;;;1.70;99.90;;;;;;5046696;28;20041;-67
2020/12/28 08:30:06;;;;;;;0.25;0.25;;;1.70;99.90;;;;;;5046622;28;20045;-67
2020/12/28 08:32:33;;;;;;;1.33;0.65;;;1.80;99.90;;;;;;5051003;28;20491;-67
2020/12/28 08:35:00;;;;;;;0.63;0.52;;;2.00;99.90;;;;;;5065531;28;20625;-66
2020/12/28 08:37:27;;;;;;;1.42;0.73;;;2.00;99.90;;;;;;5065913;28;20098;-67
2020/12/28 08:39:53;;;;;;;0.70;0.55;;;2.10;99.90;;;;;;5051899;28;20040;-67
2020/12/28 08:42:32;;;;;;;1.92;0.75;;;2.20;99.90;;;;;;5065098;28;20047;-67
2020/12/28 08:44:58;;;;;;;1.48;0.73;;;2.20;99.90;;;;;;5051492;28;20041;-67
2020/12/28 08:47:25;;;;;;;3.10;0.70;;;2.40;99.90;;;;;;5058874;28;20048;-65
2020/12/28 08:49:52;;;;;;;1.85;0.55;;;2.40;99.90;;;;;;5046212;28;20078;-67
2020/12/28 08:52:20;;;;;;;1.60;1.02;;;2.40;99.90;;;;;;5057830;28;20122;-67
2020/12/28 08:54:59;;;;;;;4.20;0.82;;;2.40;99.90;;;;;;5066248;28;20123;-67
2020/12/28 08:57:26;;;;;;;0.82;0.60;;;2.40;99.90;;;;;;5059513;28;20120;-67
2020/12/28 08:59:53;;;;;;;1.42;0.90;;;2.30;99.90;;;;;;5060628;28;20043;-67
2020/12/28 09:02:21;;;;;;;4.10;1.40;;;2.40;99.90;;;;;;5059817;28;20313;-66
2020/12/28 09:04:47;;;;;;;5.53;2.05;;;2.40;99.90;;;;;;5060906;28;20044;-67
2020/12/28 09:07:13;;;;;;;5.88;1.67;;;2.40;99.90;;;;;;5060469;28;20036;-67
2020/12/28 09:09:40;;;;;;;9.82;2.38;;;2.40;99.90;;;;;;5066566;28;20041;-67
2020/12/28 09:12:06;;;;;;;3.05;1.00;;;2.40;99.90;;;;;;5057110;28;20512;-67
2020/12/28 09:14:32;;;;;;;2.33;0.98;;;2.30;99.90;;;;;;5053915;28;20096;-68
2020/12/28 09:16:58;;;;;;;0.88;0.50;;;2.30;99.90;;;;;;5069757;28;20131;-67
2020/12/28 09:19:23;;;;;;;0.40;0.30;;;2.40;99.90;;;;;;5053581;28;20086;-66
2020/12/28 09:21:49;;;;;;;1.00;0.60;;;2.40;99.90;;;;;;5060005;28;20057;-66
2020/12/28 09:24:15;;;;;;;1.52;0.60;;;2.50;99.90;;;;;;5054147;28;20047;-65
2020/12/28 09:26:40;;;;;;;2.90;0.68;;;2.60;99.90;;;;;;5056531;28;20041;-65
2020/12/28 09:29:06;;;;;;;0.95;0.50;;;2.70;99.90;;;;;;5054524;28;20393;-63
2020/12/28 09:31:32;;;;;;;0.30;0.30;;;2.80;99.90;;;;;;5067925;28;20052;-65
2020/12/28 09:33:57;;;;;;;0.93;0.50;;;2.90;99.90;;;;;;5049905;28;20040;-65
2020/12/28 09:36:23;;;;;;;1.98;0.50;;;2.90;99.90;;;;;;5068248;28;20037;-65
2020/12/28 09:38:49;;;;;;;0.57;0.32;;;2.90;99.90;;;;;;5065967;28;20055;-66
2020/12/28 09:41:15;;;;;;;0.93;0.40;;;2.80;99.90;;;;;;5067566;28;20105;-64
2020/12/28 09:43:41;;;;;;;0.73;0.55;;;2.80;99.90;;;;;;5066208;28;20047;-64
2020/12/28 09:46:08;;;;;;;3.45;0.60;;;2.70;99.90;;;;;;5066244;28;20060;-64
2020/12/28 09:48:34;;;;;;;0.63;0.43;;;2.60;99.90;;;;;;5062960;28;20047;-66
2020/12/28 09:50:59;;;;;;;0.68;0.50;;;2.60;99.90;;;;;;5065294;28;20036;-66
2020/12/28 09:53:25;;;;;;;;;;;2.60;99.90;;;;;;5067209;28;20051;-66
2020/12/28 09:55:51;;;;;;;0.95;0.50;;;2.60;99.90;;;;;;5065975;28;19920;-65
2020/12/28 09:58:16;;;;;;;0.45;0.45;;;2.60;99.90;;;;;;5065948;28;20039;-65
2020/12/28 10:00:42;;;;;;;1.20;0.60;;;2.60;99.90;;;;;;5060549;28;20060;-65
2020/12/28 10:03:08;;;;;;;0.90;0.70;;;2.60;99.90;;;;;;5055513;28;20071;-66
2020/12/28 10:05:34;;;;;;;0.50;0.50;;;2.60;99.90;;;;;;5057243;22;20377;-66
2020/12/28 10:08:00;;;;;;;1.13;0.52;;;2.70;99.90;;;;;;5017896;28;20046;-66
2020/12/28 10:10:25;;;;;;;0.77;0.50;;;2.80;99.90;;;;;;5016767;28;20572;-66
2020/12/28 10:12:51;;;;;;;1.38;0.40;;;2.70;99.90;;;;;;5019857;28;20041;-65
2020/12/28 10:15:17;;;;;;;3.85;0.60;;;2.70;99.90;;;;;;5017288;28;20124;-66
2020/12/28 10:18:09;;;;;;;1.40;0.60;;;2.80;99.90;;;;;;5015400;28;20091;-66
2020/12/28 10:20:35;;;;;;;4.78;0.60;;;2.90;99.90;;;;;;5014415;28;20042;-67
2020/12/28 10:23:00;;;;;;;2.80;0.68;;;3.00;99.90;;;;;;5016753;28;20538;-66
2020/12/28 10:25:26;;;;;;;2.85;0.65;;;2.90;99.90;;;;;;5014026;28;20042;-67
2020/12/28 10:27:51;;;;;;;3.22;0.88;;;2.70;99.90;;;;;;5017244;28;20485;-66
2020/12/28 10:30:17;;;;;;;;;;;2.80;99.90;;;;;;5024446;28;20044;-66
2020/12/28 10:32:42;;;;;;;6.63;0.63;;;2.70;99.90;;;;;;5026270;28;20008;-65
2020/12/28 10:35:08;;;;;;;0.55;0.40;;;2.80;99.90;;;;;;5025650;28;20037;-65
2020/12/28 10:37:33;;;;;;;4.32;0.82;;;2.90;99.90;;;;;;5016345;28;20073;-68
2020/12/28 10:39:59;;;;;;;4.88;0.60;;;2.90;99.90;;;;;;5006934;28;20038;-65
2020/12/28 10:42:25;;;;;;;0.75;0.40;;;2.90;99.90;;;;;;5005414;28;20063;-68
2020/12/28 10:44:50;;;;;;;1.63;0.40;;;3.00;99.90;;;;;;5018953;28;20465;-67
2020/12/28 10:47:16;;;;;;;1.20;0.50;;;3.30;99.90;;;;;;5016283;28;20095;-67
2020/12/28 10:49:41;;;;;;;0.77;0.50;;;3.30;99.90;;;;;;5025752;28;20041;-67
2020/12/28 10:52:07;;;;;;;0.68;0.60;;;3.40;99.90;;;;;;5025538;28;20574;-66
2020/12/28 10:54:32;;;;;;;2.78;0.65;;;3.50;99.90;;;;;;5026852;28;20041;-66
2020/12/28 10:56:58;;;;;;;2.92;0.70;;;3.50;99.90;;;;;;5024704;28;20072;-63
2020/12/28 10:59:24;;;;;;;6.35;1.00;;;3.50;99.90;;;;;;5025044;28;20065;-66
2020/12/28 11:01:49;;;;;;;3.17;1.90;;;3.50;99.90;;;;;;5022649;28;20103;-65
2020/12/28 11:04:15;;;;;;;1.45;0.60;;;3.50;99.90;;;;;;5005283;28;20038;-67
2020/12/28 11:06:41;;;;;;;26.83;14.65;;;3.50;99.90;;;;;;5013742;28;20050;-66
2020/12/28 11:09:06;;;;;;;13.20;7.53;;;3.50;99.90;;;;;;4987717;28;20041;-67
2020/12/28 11:11:32;;;;;;;9.90;2.75;;;3.60;99.90;;;;;;5016265;28;20045;-66
2020/12/28 11:13:57;;;;;;;;;;;3.50;99.90;;;;;;5021573;28;20045;-65
2020/12/28 11:16:26;;;;;;;5.90;0.98;;;3.50;99.90;;;;;;5021168;28;20036;-69
2020/12/28 11:18:52;;;;;;;4.10;0.80;;;3.50;99.90;;;;;;5015721;28;20038;-66
2020/12/28 11:21:18;;;;;;;4.60;0.60;;;3.50;99.90;;;;;;5024141;28;20091;-64
2020/12/28 11:23:59;;;;;;;;;;;3.50;99.90;;;;;;5025610;28;20132;-65
2020/12/28 11:26:25;;;;;;;2.90;0.55;;;3.50;99.90;;;;;;5022289;28;19928;-65
2020/12/28 11:28:51;;;;;;;3.33;0.60;;;3.40;99.90;;;;;;5012911;28;20041;-64
2020/12/28 11:31:18;;;;;;;1.80;0.50;;;3.40;99.90;;;;;;5012685;28;20161;-65
2020/12/28 11:33:44;;;;;;;0.90;0.40;;;3.40;99.90;;;;;;5005334;28;20607;-65
2020/12/28 11:36:11;;;;;;;5.22;2.00;;;3.40;99.90;;;;;;5024241;28;20073;-67
2020/12/28 11:38:38;;;;;;;12.57;6.35;;;3.40;99.90;;;;;;5005837;28;20047;-66
2020/12/28 11:41:04;;;;;;;14.05;6.85;;;3.40;99.90;;;;;;5024969;28;20037;-66
2020/12/28 11:43:30;;;;;;;3.75;2.40;;;3.60;99.90;;;;;;5012289;28;20072;-65
2020/12/28 11:45:55;;;;;;;5.68;2.50;;;3.60;99.90;;;;;;5018833;28;20057;-65
2020/12/28 11:48:21;;;;;;;;;;;3.60;99.90;;;;;;5022398;28;20044;-64
2020/12/28 11:50:47;;;;;;;4.40;2.50;;;3.60;99.90;;;;;;5024668;28;19921;-64
2020/12/28 11:53:16;;;;;;;4.53;1.92;;;3.60;99.90;;;;;;5023973;28;20566;-65
2020/12/28 11:58:26;;;;;;;1.85;1.30;;;3.50;99.90;;;;;;5014917;28;20042;-67
2020/12/28 12:00:52;;;;;;;3.67;1.67;;;3.60;99.90;;;;;;5017256;28;20037;-65
2020/12/28 12:03:18;;;;;;;3.33;1.25;;;3.50;99.90;;;;;;4996631;28;20044;-65
2020/12/28 12:05:43;;;;;;;;;;;3.50;99.90;;;;;;5019808;28;20959;-65
2020/12/28 12:08:09;;;;;;;2.80;1.48;;;3.30;99.90;;;;;;5021262;28;20404;-64
2020/12/28 12:10:34;;;;;;;9.35;5.90;;;3.30;99.90;;;;;;5021651;28;20041;-64
2020/12/28 12:13:00;;;;;;;;;;;3.40;99.90;;;;;;5018700;28;20129;-64
2020/12/28 12:15:25;;;;;;;51.28;21.50;;;3.50;99.90;;;;;;5013544;28;20304;-65
2020/12/28 12:17:51;;;;;;;35.20;21.50;;;3.50;99.90;;;;;;5028376;28;20420;-66
2020/12/28 12:20:16;;;;;;;;;;;3.60;99.90;;;;;;5023293;28;20038;-64
2020/12/28 12:22:42;;;;;;;5.32;3.35;;;3.60;99.90;;;;;;5017172;28;19924;-64
2020/12/28 12:25:08;;;;;;;6.20;2.40;;;3.60;99.90;;;;;;5019605;28;20037;-64
2020/12/28 12:27:33;;;;;;;13.48;8.10;;;3.50;99.90;;;;;;5018265;28;20104;-66
2020/12/28 12:29:59;;;;;;;6.78;3.60;;;3.60;99.90;;;;;;5024240;28;20049;-66
2020/12/28 12:32:24;;;;;;;;;;;3.60;99.90;;;;;;5015804;28;20537;-67
2020/12/28 12:34:50;;;;;;;8.13;5.03;;;3.60;99.90;;;;;;5018415;28;19920;-66
2020/12/28 12:37:17;;;;;;;;;;;3.50;99.90;;;;;;5001718;28;20092;-65
2020/12/28 12:39:42;;;;;;;3.30;1.88;;;3.40;99.90;;;;;;5018383;28;19924;-66
2020/12/28 12:42:08;;;;;;;3.20;2.03;;;3.30;99.90;;;;;;5003977;28;20041;-65
2020/12/28 12:44:33;;;;;;;3.47;1.80;;;3.20;99.90;;;;;;5019452;28;20038;-65
2020/12/28 12:46:59;;;;;;;2.28;1.25;;;3.20;99.90;;;;;;5014954;28;20057;-65
2020/12/28 12:49:25;;;;;;;1.42;1.20;;;3.30;99.90;;;;;;5019400;28;20049;-65
2020/12/28 12:52:14;;;;;;;3.58;1.65;;;3.30;99.90;;;;;;5020469;28;20049;-65
2020/12/28 12:54:40;;;;;;;2.55;1.85;;;3.30;99.90;;;;;;5013366;28;20100;-64
2020/12/28 12:57:06;;;;;;;2.78;1.40;;;3.30;99.90;;;;;;5027104;28;20073;-65
2020/12/28 13:00:01;;;;;;;2.85;1.50;;;3.30;99.90;;;;;;5026423;28;20073;-64
2020/12/28 13:02:18;;;;;;;2.50;1.60;;;3.30;99.90;;;;;;5026247;28;20120;-64